Αρχική σελίδα
METAR-TAF:

METAR-TAF

Αεροδρόμια :

Tonopah Airport

Tonopah, Νεβάδα, Ηνωμένες Πολιτείες Αμερικής

γεωγραφικό πλάτος: 38-03-37N, γεωγραφικό μήκος: 117-05-14W, υψόμετρο: 1654 μ

Παρών καιρός

Η αναφορά έγινε 16 λεπτά πριν, στις 17:56 UTC
Ήπιος άνεμος
Θερμοκρασία 7°C
Υγρασία 36%
Πίεση 1025 hPa
Ορατότητα: 16.1 χλμ
Καθαρός ουρανός

METAR: KTPH 181756Z AUTO 00000KT 10SM CLR 07/M07 A3028 RMK AO2 SLP246 T00721067 10078 21017 51007

Χρόνος: 10:12 (18:12 UTC)

Πρόγνωση Καιρού

Η αναφορά έγινε 52 λεπτά πριν, στις 17:20 UTC
Η πρόγνωση ισχύει από τις 18 στις 18 UTC έως τις 19 στις 18 UTC
Άνεμος 6 kt από μεταβλητές κατευθύνσεις
Ορατότητα: 10 χλμ
Καθαρός ουρανός
Από 19 στις 0500 UTC
Άνεμος 10 kt από Β
Ορατότητα: 10 χλμ
Καθαρός ουρανός

TAF: KTPH 181720Z 1818/1918 VRB06KT P6SM SKC FM190500 36010KT P6SM SKC

Μετεωρολογικές αναφορές και προγνώσεις για περισσότερα από 4000 αεροδρόμια (δελτία METAR και TAF).

Οι διαθέσιμοι σταθμοί απεικονίζονται στο χάρτη με κίτρινες και κόκκινες κουκκίδες.

Μετακινήστε το ποντίκι πάνω από τις κουκκίδες για να δείτε το όνομα του σταθμού.

Στη συνέχεια, κάντε κλικ για να δείτε τις μετεωρολογικές αναφορές και τις προγνώσεις καιρού.

Για να αλλάξετε το χάρτη: κάντε κλικ στα πράσινα κουμπιά με τον μαύρο σταυρό για να ζουμάρετε, στο πράσινο κουμπί με την παύλα για να αφαιρέσετε το ζουμ ή στα πράσινα βέλη για να αντιπαραβάλλετε χάρτες.


METAR-TAF: